• Join FlightAware (Why Join?)
  • Login
  • US Flag 
07:31AM EDT


 

Airport Tracker/Info


-or-


 

Live Flight TrackerFlight Track Log ✈ EJA583 ✈ 16-Sep-2013 ✈ KIZG - KBOS

Flight Track Log - Related Links

Times and Time Zones

All times are in EDT time to prevent confusion due to time zone crossing. See the EJA583 flight status page for this flight to view local times or setup timezone preferences in your user account.

Time Position Orientation Groundspeed Altitude Reporting Facility
EDT Latitude Longitude Course Direction KTS MPH feet Rate Location/Type
02:19PM 43.9128 -70.8436 182° South 277 319 10,900  Level Boston Center
02:20PM 43.8633 -70.7411 124° Southeast 330 380 11,000  Climbing Boston Center
02:21PM 43.8008 -70.6164 125° Southeast 358 412 11,000  Level Boston Center
02:22PM 43.7289 -70.5439 144° Southeast 347 399 11,000  Level Boston Center
02:23PM 43.6242 -70.5097 167° South 347 399 11,000  Level Boston Center
02:24PM 43.6412 -70.9607 182° South  Level Estimated
02:24PM 43.5361 -70.4869 169° South 357 411 11,000  Level Boston Center
02:25PM 43.4294 -70.4558 168° South 362 417 11,000  Level Boston Center
02:26PM 43.3394 -70.4331 170° South 362 417 11,000  Level Boston Center
02:27PM 43.2347 -70.4053 169° South 355 409 11,000  Level Boston Center
02:28PM 43.1467 -70.3797 168° South 355 409 11,000  Level Boston Center
02:29PM 43.0503 -70.3517 168° South 355 409 11,000  Level Boston Center
02:30PM 42.9456 -70.3242 169° South 355 409 11,000  Level Boston Center
02:31PM 42.8469 -70.2964 168° South 355 409 11,000  Level Boston Center
02:32PM 42.7508 -70.2714 169° South 355 409 11,000  Level Boston Center
02:33PM 42.6525 -70.2550 173° South 355 409 11,000 -120 Level Boston Center
02:34PM 42.5936 -70.3417 227° Southwest 297 342 10,800 -660 Descending Boston Center
02:35PM 42.5683 -70.4469 252° West 271 312 9,800 -900 Descending Boston Center
02:36PM 42.5469 -70.5350 252° West 264 304 9,000 -420 Descending Boston Center
02:37PM 42.5233 -70.6175 249° West 254 292 9,000  Level Boston Center
02:38PM 42.4994 -70.6969 248° West 242 278 9,000  Level Boston Center
02:39PM 42.4778 -70.7792 250° West 236 272 9,000  Level Boston Center
02:40PM 42.4519 -70.8558 245° Southwest 229 264 9,000 -480 Level Boston Center
02:41PM 42.4333 -70.9167 248° West 230 265 8,200 -1,200 Descending KA90
02:42PM 42.4167 -71.0000 255° West 218 251 7,000 -1,320 Descending KA90
02:43PM 42.4000 -71.0667 251° West 219 252 5,600 -1,020 Descending KA90
02:44PM 42.3667 -71.1500 242° Southwest 220 253 5,000 -360 Descending KA90
02:45PM 42.3333 -71.2167 236° Southwest 241 277 5,000  Level KA90
02:46PM 42.2833 -71.2333 194° South 217 250 5,000 -300 Level KA90
02:47PM 42.2333 -71.2667 206° Southwest 214 246 4,400 -540 Descending KA90
02:48PM 42.2000 -71.2167 132° Southeast 190 219 4,000 -660 Descending KA90
02:49PM 42.2333 -71.1667 48° Northeast 182 209 3,100 -540 Descending KA90
02:50PM 42.2667 -71.1167 48° Northeast 163 188 3,000 -540 Descending KA90
02:51PM 42.3000 -71.0667 48° Northeast 177 204 2,000 -1,080 Descending KA90
02:52PM 42.3333 -71.0333 36° Northeast 135 155 800 -1,200 Descending KA90